createdAt,value
2022-11-09T00:00:43.051Z,93.20
2022-11-09T00:03:11.331Z,93.56
2022-11-09T00:05:39.361Z,93.45
2022-11-09T00:08:08.082Z,93.44
2022-11-09T00:10:36.026Z,93.64
2022-11-09T00:13:05.554Z,93.64
2022-11-09T00:15:33.448Z,93.58
2022-11-09T00:18:02.858Z,93.42
2022-11-09T00:20:30.687Z,93.81
2022-11-09T00:22:58.552Z,93.67
2022-11-09T00:25:26.380Z,93.74
2022-11-09T00:27:54.449Z,93.89
2022-11-09T00:30:23.523Z,93.88
2022-11-09T00:32:51.355Z,93.89
2022-11-09T00:35:19.666Z,93.99
2022-11-09T00:37:47.479Z,94.20
2022-11-09T00:40:15.573Z,93.63
2022-11-09T00:42:43.267Z,93.64
2022-11-09T00:45:11.324Z,93.37
2022-11-09T00:47:40.455Z,93.32
2022-11-09T00:50:09.132Z,93.11
2022-11-09T00:52:36.806Z,93.24
2022-11-09T00:55:05.192Z,93.14
2022-11-09T00:57:33.099Z,93.05
2022-11-09T01:00:00.839Z,93.29
2022-11-09T01:02:28.517Z,93.30
2022-11-09T01:04:57.591Z,93.35
2022-11-09T01:07:25.297Z,93.33
2022-11-09T01:09:52.955Z,93.26
2022-11-09T01:12:20.728Z,93.25
2022-11-09T01:14:48.386Z,93.00
2022-11-09T01:17:16.097Z,93.10
2022-11-09T01:19:44.054Z,92.91
2022-11-09T01:22:13.122Z,93.01
2022-11-09T01:24:40.878Z,93.00
2022-11-09T01:27:08.573Z,92.91
2022-11-09T01:29:36.283Z,92.62
2022-11-09T01:32:04.517Z,92.36
2022-11-09T01:34:32.462Z,92.73
2022-11-09T01:37:00.213Z,92.46
2022-11-09T01:39:29.202Z,92.28
2022-11-09T01:41:56.881Z,92.37
2022-11-09T01:44:28.454Z,92.16
2022-11-09T01:46:58.871Z,92.17
2022-11-09T01:49:40.689Z,92.41
2022-11-09T01:52:11.418Z,92.44
2022-11-09T01:54:42.773Z,92.69
2022-11-09T01:57:12.931Z,92.67
2022-11-09T01:59:48.485Z,92.63
2022-11-09T02:02:16.834Z,92.77
2022-11-09T02:04:48.433Z,92.95
2022-11-09T02:07:16.352Z,92.80
2022-11-09T02:09:50.540Z,92.97
2022-11-09T02:12:19.381Z,93.05
2022-11-09T02:14:50.681Z,93.09
2022-11-09T02:17:19.566Z,93.13
2022-11-09T02:19:47.258Z,93.23
2022-11-09T02:22:16.512Z,93.44
2022-11-09T02:24:44.233Z,93.54
2022-11-09T02:27:11.888Z,93.68
2022-11-09T02:29:42.561Z,93.70
2022-11-09T02:32:14.673Z,93.70
2022-11-09T02:34:42.381Z,93.67
2022-11-09T02:37:10.159Z,93.77
2022-11-09T02:39:39.935Z,93.75
2022-11-09T02:42:11.485Z,94.06
2022-11-09T02:44:42.710Z,94.09
2022-11-09T02:47:10.551Z,94.68
2022-11-09T02:49:38.295Z,94.79
2022-11-09T02:52:05.978Z,94.85
2022-11-09T02:54:33.658Z,95.35
2022-11-09T02:57:02.686Z,95.78
2022-11-09T02:59:30.394Z,95.92
2022-11-09T03:01:58.135Z,96.23
2022-11-09T03:04:25.921Z,96.50
2022-11-09T03:06:53.732Z,97.16
2022-11-09T03:09:21.533Z,97.29
2022-11-09T03:11:49.537Z,97.47
2022-11-09T03:14:18.608Z,97.71
2022-11-09T03:16:50.186Z,98.46
2022-11-09T03:19:18.537Z,98.48
2022-11-09T03:21:46.255Z,99.05
2022-11-09T03:24:13.968Z,99.30
2022-11-09T03:26:41.686Z,99.39
2022-11-09T03:29:09.421Z,99.62
2022-11-09T03:31:39.677Z,99.32
2022-11-09T03:34:07.339Z,99.36
2022-11-09T03:36:35.037Z,99.79
2022-11-09T03:39:02.834Z,100.00
2022-11-09T03:41:30.531Z,99.94
2022-11-09T03:43:58.161Z,99.91
2022-11-09T03:46:25.882Z,99.94
2022-11-09T03:48:54.914Z,99.78
2022-11-09T03:51:22.614Z,100.00
2022-11-09T03:53:50.394Z,100.00
2022-11-09T03:56:18.111Z,100.00
2022-11-09T03:58:45.763Z,100.00
2022-11-09T04:01:13.723Z,100.00
2022-11-09T04:03:41.555Z,100.00
2022-11-09T04:06:10.751Z,100.00
2022-11-09T04:08:38.471Z,100.00
2022-11-09T04:11:06.179Z,100.00
2022-11-09T04:13:33.957Z,100.00
2022-11-09T04:16:01.686Z,100.00
2022-11-09T04:18:29.398Z,100.00
2022-11-09T04:20:59.053Z,100.00
2022-11-09T04:23:28.110Z,100.00
2022-11-09T04:25:55.803Z,100.00
2022-11-09T04:28:23.470Z,100.00
2022-11-09T04:30:51.240Z,100.00
2022-11-09T04:33:19.258Z,100.00
2022-11-09T04:35:47.216Z,100.00
2022-11-09T04:38:15.393Z,100.00
2022-11-09T04:40:44.440Z,100.00
2022-11-09T04:43:15.863Z,100.00
2022-11-09T04:45:44.208Z,100.00
2022-11-09T04:48:12.897Z,100.00
2022-11-09T04:50:40.645Z,100.00
2022-11-09T04:53:10.014Z,100.00
2022-11-09T04:55:38.179Z,100.00
2022-11-09T04:58:07.711Z,100.00
2022-11-09T05:00:35.919Z,100.00
2022-11-09T05:03:05.735Z,100.00
2022-11-09T05:05:34.354Z,100.00
2022-11-09T05:08:02.180Z,100.00
2022-11-09T05:10:30.294Z,100.00
2022-11-09T05:12:58.865Z,100.00
2022-11-09T05:15:28.549Z,100.00
2022-11-09T05:17:56.712Z,100.00
2022-11-09T05:20:25.308Z,100.00
2022-11-09T05:23:10.663Z,100.00
2022-11-09T05:25:38.373Z,100.00
2022-11-09T05:28:06.589Z,100.00
2022-11-09T05:30:37.962Z,100.00
2022-11-09T05:33:06.424Z,100.00
2022-11-09T05:35:34.509Z,100.00
2022-11-09T05:38:02.426Z,100.00
2022-11-09T05:40:30.178Z,100.00
2022-11-09T05:42:57.934Z,100.00
2022-11-09T05:45:43.375Z,100.00
2022-11-09T05:48:15.035Z,100.00
2022-11-09T05:50:43.435Z,100.00
2022-11-09T05:53:12.306Z,100.00
2022-11-09T05:55:40.631Z,100.00
2022-11-09T05:58:08.955Z,100.00
2022-11-09T06:00:38.936Z,100.00
2022-11-09T06:03:11.259Z,100.00
2022-11-09T06:05:42.107Z,100.00
2022-11-09T06:08:15.526Z,100.00
2022-11-09T06:10:43.797Z,100.00
2022-11-09T06:13:12.084Z,100.00
2022-11-09T06:15:39.984Z,100.00
2022-11-09T06:18:08.166Z,100.00
2022-11-09T06:20:36.343Z,100.00
2022-11-09T06:23:05.639Z,100.00
2022-11-09T06:25:34.134Z,100.00
2022-11-09T06:28:02.599Z,100.00
2022-11-09T06:30:30.876Z,100.00
2022-11-09T06:32:59.968Z,100.00
2022-11-09T06:35:27.941Z,100.00
2022-11-09T06:37:58.977Z,100.00
2022-11-09T06:40:29.208Z,100.00
2022-11-09T06:43:01.137Z,100.00
2022-11-09T06:45:30.357Z,100.00
2022-11-09T06:47:58.838Z,100.00
2022-11-09T06:50:27.983Z,100.00
2022-11-09T06:52:58.308Z,100.00
2022-11-09T06:55:26.281Z,100.00
2022-11-09T06:57:56.049Z,100.00
2022-11-09T07:00:24.208Z,100.00
2022-11-09T07:02:52.537Z,100.00
2022-11-09T07:05:20.976Z,100.00
2022-11-09T07:07:49.341Z,100.00
2022-11-09T07:10:17.903Z,100.00
2022-11-09T07:12:45.907Z,100.00
2022-11-09T07:15:15.061Z,100.00
2022-11-09T07:17:43.087Z,100.00
2022-11-09T07:20:14.610Z,100.00
2022-11-09T07:22:42.981Z,100.00
2022-11-09T07:25:16.128Z,100.00
2022-11-09T07:27:44.655Z,100.00
2022-11-09T07:30:12.973Z,100.00
2022-11-09T07:35:31.086Z,100.00
2022-11-09T07:38:01.235Z,100.00
2022-11-09T07:40:30.749Z,100.00
2022-11-09T07:42:59.554Z,100.00
2022-11-09T07:45:29.016Z,100.00
2022-11-09T07:47:59.654Z,100.00
2022-11-09T07:50:28.653Z,100.00
2022-11-09T07:52:56.924Z,100.00
2022-11-09T07:55:24.880Z,100.00
2022-11-09T07:57:56.436Z,100.00
2022-11-09T08:00:24.500Z,100.00
2022-11-09T08:02:53.283Z,100.00
2022-11-09T08:05:22.699Z,100.00
2022-11-09T08:07:55.591Z,100.00
2022-11-09T08:10:23.650Z,100.00
2022-11-09T08:12:55.900Z,100.00
2022-11-09T08:15:24.133Z,100.00
2022-11-09T08:17:52.178Z,100.00
2022-11-09T08:20:22.238Z,100.00
2022-11-09T08:22:50.045Z,100.00
2022-11-09T08:25:18.052Z,100.00
2022-11-09T08:27:45.845Z,100.00
2022-11-09T08:30:16.045Z,100.00
2022-11-09T08:32:45.301Z,100.00
2022-11-09T08:35:17.554Z,100.00
2022-11-09T08:37:47.630Z,100.00
2022-11-09T08:40:17.399Z,100.00
2022-11-09T08:42:45.164Z,100.00
2022-11-09T08:45:13.080Z,100.00
2022-11-09T08:47:41.408Z,100.00
2022-11-09T08:50:11.255Z,100.00
2022-11-09T08:52:39.462Z,100.00
2022-11-09T08:55:09.525Z,100.00
2022-11-09T08:57:37.374Z,100.00
2022-11-09T09:00:06.765Z,100.00
2022-11-09T09:02:34.586Z,100.00
2022-11-09T09:05:02.276Z,100.00
2022-11-09T09:07:30.053Z,100.00
2022-11-09T09:09:57.889Z,100.00
2022-11-09T09:12:26.964Z,100.00
2022-11-09T09:14:55.222Z,100.00
2022-11-09T09:17:23.066Z,100.00
2022-11-09T09:19:50.780Z,100.00
2022-11-09T09:22:18.641Z,100.00
2022-11-09T09:24:46.364Z,100.00
2022-11-09T09:27:14.241Z,100.00
2022-11-09T09:29:43.303Z,100.00
2022-11-09T09:32:11.085Z,100.00
2022-11-09T09:34:38.821Z,100.00
2022-11-09T09:37:06.597Z,100.00
2022-11-09T09:39:34.378Z,100.00
2022-11-09T09:42:05.657Z,100.00
2022-11-09T09:44:37.997Z,100.00
2022-11-09T09:47:13.614Z,100.00
2022-11-09T09:49:46.355Z,100.00
2022-11-09T09:52:22.737Z,100.00
2022-11-09T09:54:58.951Z,100.00
2022-11-09T09:57:29.426Z,100.00
2022-11-09T10:00:02.448Z,100.00
2022-11-09T10:02:35.358Z,100.00
2022-11-09T10:05:08.756Z,100.00
2022-11-09T10:07:42.118Z,100.00
2022-11-09T10:10:32.864Z,100.00
2022-11-09T10:13:27.308Z,100.00
2022-11-09T10:15:59.848Z,100.00
2022-11-09T10:18:41.930Z,100.00
2022-11-09T10:21:32.024Z,100.00
2022-11-09T10:24:20.956Z,100.00
2022-11-09T10:26:52.178Z,100.00
2022-11-09T10:29:24.094Z,100.00
2022-11-09T10:31:53.987Z,100.00
2022-11-09T10:34:29.162Z,100.00
2022-11-09T10:37:05.591Z,100.00
2022-11-09T10:39:41.917Z,100.00
2022-11-09T10:42:12.065Z,100.00
2022-11-09T10:44:39.827Z,100.00
2022-11-09T10:47:11.116Z,100.00
2022-11-09T10:49:41.125Z,100.00
2022-11-09T10:52:31.660Z,100.00
2022-11-09T10:55:22.718Z,100.00
2022-11-09T10:57:57.835Z,100.00
2022-11-09T11:00:25.847Z,100.00
2022-11-09T11:02:54.505Z,100.00
2022-11-09T11:05:32.759Z,100.00
2022-11-09T11:08:21.586Z,100.00
2022-11-09T11:10:58.515Z,100.00
2022-11-09T11:13:34.744Z,100.00
2022-11-09T11:16:02.636Z,100.00
2022-11-09T11:18:37.934Z,100.00
2022-11-09T11:21:18.396Z,100.00
2022-11-09T11:24:05.088Z,100.00
2022-11-09T11:26:38.844Z,100.00
2022-11-09T11:29:15.612Z,100.00
2022-11-09T11:31:43.310Z,100.00
2022-11-09T11:34:31.983Z,100.00
2022-11-09T11:37:18.364Z,100.00
2022-11-09T11:39:57.435Z,100.00
2022-11-09T11:42:47.539Z,100.00
2022-11-09T11:45:40.009Z,100.00
2022-11-09T11:48:51.584Z,100.00
2022-11-09T11:51:25.148Z,100.00
2022-11-09T11:54:07.363Z,100.00
2022-11-09T11:56:39.454Z,100.00
2022-11-09T11:59:36.130Z,100.00
2022-11-09T12:02:28.329Z,100.00
2022-11-09T12:05:32.386Z,100.00
2022-11-09T12:08:06.267Z,100.00
2022-11-09T12:10:47.250Z,100.00
2022-11-09T12:13:29.777Z,100.00
2022-11-09T12:16:04.601Z,100.00
2022-11-09T12:18:44.703Z,100.00
2022-11-09T12:21:22.349Z,100.00
2022-11-09T12:24:07.729Z,100.00
2022-11-09T12:27:04.717Z,100.00
2022-11-09T12:29:44.637Z,100.00
2022-11-09T12:32:23.881Z,98.96
2022-11-09T12:34:57.982Z,96.54
2022-11-09T12:37:30.173Z,96.05
2022-11-09T12:40:05.957Z,95.79
2022-11-09T12:42:39.969Z,95.72
2022-11-09T12:45:27.324Z,94.46
2022-11-09T12:47:59.384Z,92.93
2022-11-09T12:50:29.021Z,91.43
2022-11-09T12:52:57.267Z,91.36
2022-11-09T12:55:34.453Z,91.24
2022-11-09T12:58:03.915Z,91.27
2022-11-09T13:00:50.234Z,91.47
2022-11-09T13:03:25.599Z,92.07
2022-11-09T13:06:16.507Z,92.31
2022-11-09T13:09:00.746Z,91.92
2022-11-09T13:11:37.643Z,92.08
2022-11-09T13:14:33.793Z,93.04
2022-11-09T13:17:03.723Z,92.46
2022-11-09T13:19:51.196Z,92.63
2022-11-09T13:22:56.178Z,92.22
2022-11-09T13:25:53.767Z,92.06
2022-11-09T13:28:58.375Z,90.72
2022-11-09T13:32:02.310Z,89.52
2022-11-09T13:34:41.195Z,88.57
2022-11-09T13:37:49.171Z,88.20
2022-11-09T13:40:40.155Z,88.95
2022-11-09T13:43:17.531Z,88.89
2022-11-09T13:45:47.009Z,88.78
2022-11-09T13:48:31.421Z,89.53
2022-11-09T13:51:01.559Z,89.36
2022-11-09T13:53:32.070Z,88.63
2022-11-09T13:56:00.103Z,89.24
2022-11-09T13:58:34.419Z,89.33
2022-11-09T14:01:02.248Z,89.60
2022-11-09T14:03:33.779Z,89.49
2022-11-09T14:06:03.575Z,89.04
2022-11-09T14:08:40.243Z,87.89
2022-11-09T14:11:35.840Z,87.58
2022-11-09T14:14:18.278Z,87.93
2022-11-09T14:16:53.638Z,88.48
2022-11-09T14:19:31.051Z,87.55
2022-11-09T14:21:58.945Z,87.23
2022-11-09T14:24:30.820Z,87.51
2022-11-09T14:27:04.156Z,86.77
2022-11-09T14:29:33.039Z,85.86
2022-11-09T14:32:02.652Z,85.81
2022-11-09T14:34:31.764Z,85.41
2022-11-09T14:37:03.191Z,84.38
2022-11-09T14:39:34.989Z,83.18
2022-11-09T14:42:02.787Z,81.47
2022-11-09T14:44:35.608Z,81.10
2022-11-09T14:47:04.548Z,80.57
2022-11-09T14:49:33.789Z,77.97
2022-11-09T14:52:02.245Z,77.02
2022-11-09T14:54:30.885Z,75.97
2022-11-09T14:56:58.959Z,75.78
2022-11-09T14:59:31.508Z,76.08
2022-11-09T15:02:02.164Z,75.40
2022-11-09T15:04:30.109Z,74.99
2022-11-09T15:07:03.008Z,74.55
2022-11-09T15:09:35.717Z,74.36
2022-11-09T15:12:03.970Z,73.95
2022-11-09T15:14:34.396Z,73.12
2022-11-09T15:17:12.876Z,72.28
2022-11-09T15:19:50.218Z,71.57
2022-11-09T15:22:48.031Z,71.44
2022-11-09T15:25:31.973Z,72.01
2022-11-09T15:28:21.832Z,72.08
2022-11-09T15:31:07.821Z,71.59
2022-11-09T15:33:46.710Z,71.91
2022-11-09T15:36:30.821Z,73.17
2022-11-09T15:39:12.718Z,72.28
2022-11-09T15:41:40.410Z,73.15
2022-11-09T15:44:08.961Z,73.37
2022-11-09T15:46:41.003Z,73.62
2022-11-09T15:49:16.549Z,74.91
2022-11-09T15:51:45.548Z,73.74
2022-11-09T15:54:14.788Z,73.52
2022-11-09T15:56:42.944Z,73.58
2022-11-09T15:59:18.796Z,74.67
2022-11-09T16:01:46.509Z,74.95
2022-11-09T16:04:14.566Z,75.61
2022-11-09T16:06:46.373Z,76.05
2022-11-09T16:09:17.753Z,76.71
2022-11-09T16:11:45.385Z,76.92
2022-11-09T16:14:14.790Z,77.15
2022-11-09T16:16:42.551Z,77.47
2022-11-09T16:19:14.651Z,77.48
2022-11-09T16:21:43.222Z,78.11
2022-11-09T16:24:10.910Z,77.80
2022-11-09T16:26:39.952Z,78.28
2022-11-09T16:29:07.638Z,78.16
2022-11-09T16:31:50.960Z,78.50
2022-11-09T16:34:19.421Z,78.66
2022-11-09T16:36:52.470Z,78.67
2022-11-09T16:39:26.797Z,79.17
2022-11-09T16:41:56.544Z,78.51
2022-11-09T16:44:25.226Z,78.92
2022-11-09T16:46:53.037Z,79.17
2022-11-09T16:49:20.860Z,79.02
2022-11-09T16:51:48.636Z,79.49
2022-11-09T16:54:16.450Z,79.19
2022-11-09T16:56:44.617Z,78.81
2022-11-09T16:59:13.837Z,79.01
2022-11-09T17:01:41.666Z,79.34
2022-11-09T17:04:09.520Z,79.33
2022-11-09T17:06:37.488Z,79.33
2022-11-09T17:09:05.380Z,79.61
2022-11-09T17:11:33.485Z,79.70
2022-11-09T17:14:01.901Z,81.38
2022-11-09T17:16:31.069Z,80.66
2022-11-09T17:18:59.953Z,79.60
2022-11-09T17:21:29.633Z,80.13
2022-11-09T17:23:58.053Z,79.54
2022-11-09T17:26:26.570Z,80.17
2022-11-09T17:28:54.327Z,79.69
2022-11-09T17:31:24.335Z,79.43
2022-11-09T17:33:58.342Z,79.56
2022-11-09T17:36:56.956Z,78.88
2022-11-09T17:39:16.414Z,79.75
2022-11-09T17:41:44.728Z,79.88
2022-11-09T17:44:12.629Z,80.19
2022-11-09T17:46:40.485Z,80.23
2022-11-09T17:49:10.630Z,80.78
2022-11-09T17:51:38.969Z,81.00
2022-11-09T17:54:06.967Z,80.96
2022-11-09T17:56:38.118Z,80.98
2022-11-09T17:59:06.578Z,81.39
2022-11-09T18:01:40.809Z,81.36
2022-11-09T18:04:14.836Z,81.03
2022-11-09T18:06:43.107Z,81.17
2022-11-09T18:09:39.641Z,81.28
2022-11-09T18:11:59.618Z,81.29
2022-11-09T18:14:27.524Z,81.56
2022-11-09T18:16:59.606Z,81.54
2022-11-09T18:19:29.042Z,81.54
2022-11-09T18:21:56.931Z,82.45
2022-11-09T18:24:24.783Z,82.42
2022-11-09T18:26:52.665Z,83.02
2022-11-09T18:29:20.694Z,82.75
2022-11-09T18:31:49.477Z,82.90
2022-11-09T18:34:17.373Z,83.33
2022-11-09T18:36:46.522Z,83.49
2022-11-09T18:39:16.015Z,83.85
2022-11-09T18:41:44.054Z,84.24
2022-11-09T18:44:12.145Z,84.55
2022-11-09T18:46:39.967Z,84.44
2022-11-09T18:49:13.903Z,84.77
2022-11-09T18:51:44.844Z,85.54
2022-11-09T18:54:14.209Z,86.04
2022-11-09T18:56:43.754Z,86.28
2022-11-09T18:59:13.021Z,86.43
2022-11-09T19:01:40.913Z,86.80
2022-11-09T19:04:10.796Z,87.20
2022-11-09T19:06:38.554Z,88.57
2022-11-09T19:09:24.881Z,89.20
2022-11-09T19:11:53.945Z,89.54
2022-11-09T19:14:21.815Z,89.21
2022-11-09T19:16:49.543Z,89.71
2022-11-09T19:19:17.600Z,89.44
2022-11-09T19:21:48.983Z,89.84
2022-11-09T19:24:18.754Z,89.97
2022-11-09T19:26:46.783Z,90.10
2022-11-09T19:29:16.737Z,90.26
2022-11-09T19:31:48.486Z,90.60
2022-11-09T19:34:18.100Z,90.92
2022-11-09T19:36:46.726Z,91.58
2022-11-09T19:39:15.702Z,92.18
2022-11-09T19:41:44.321Z,92.31
2022-11-09T19:44:14.431Z,92.40
2022-11-09T19:46:43.702Z,92.56
2022-11-09T19:49:11.437Z,93.35
2022-11-09T19:51:40.227Z,93.63
2022-11-09T19:54:08.283Z,94.10
2022-11-09T19:56:37.171Z,93.75
2022-11-09T19:59:05.679Z,94.16
2022-11-09T20:01:33.639Z,94.79
2022-11-09T20:04:07.684Z,94.75
2022-11-09T20:06:39.326Z,95.25
2022-11-09T20:09:07.394Z,96.06
2022-11-09T20:11:52.741Z,95.96
2022-11-09T20:14:21.107Z,95.41
2022-11-09T20:16:49.646Z,95.45
2022-11-09T20:19:18.823Z,95.96
2022-11-09T20:21:46.836Z,95.78
2022-11-09T20:24:17.188Z,95.73
2022-11-09T20:26:45.057Z,96.24
2022-11-09T20:29:12.846Z,96.00
2022-11-09T20:31:40.630Z,96.31
2022-11-09T20:34:11.574Z,96.32
2022-11-09T20:36:40.912Z,96.54
2022-11-09T20:39:08.853Z,97.24
2022-11-09T20:41:36.704Z,97.39
2022-11-09T20:44:04.847Z,98.08
2022-11-09T20:46:35.997Z,99.06
2022-11-09T20:49:07.121Z,99.41
2022-11-09T20:51:35.517Z,99.73
2022-11-09T20:54:07.578Z,100.00
2022-11-09T20:56:37.010Z,99.97
2022-11-09T20:59:05.268Z,99.96
2022-11-09T21:01:33.539Z,99.90
2022-11-09T21:04:01.533Z,100.00
2022-11-09T21:06:29.756Z,100.00
2022-11-09T21:08:58.185Z,100.00
2022-11-09T21:11:28.719Z,100.00
2022-11-09T21:13:56.742Z,100.00
2022-11-09T21:16:25.094Z,100.00
2022-11-09T21:18:53.185Z,100.00
2022-11-09T21:21:22.836Z,100.00
2022-11-09T21:24:08.497Z,100.00
2022-11-09T21:26:55.219Z,100.00
2022-11-09T21:29:42.946Z,100.00
2022-11-09T21:32:12.015Z,100.00
2022-11-09T21:34:40.104Z,100.00
2022-11-09T21:37:08.246Z,100.00
2022-11-09T21:39:36.499Z,100.00
2022-11-09T21:42:06.138Z,100.00
2022-11-09T21:44:35.573Z,100.00
2022-11-09T21:47:03.958Z,100.00
2022-11-09T21:49:31.942Z,100.00
2022-11-09T21:52:00.327Z,100.00
2022-11-09T21:54:28.838Z,100.00
2022-11-09T21:56:57.482Z,100.00
2022-11-09T21:59:26.614Z,100.00
2022-11-09T22:01:54.449Z,100.00
2022-11-09T22:04:22.299Z,100.00
2022-11-09T22:06:50.137Z,100.00
2022-11-09T22:09:19.539Z,100.00
2022-11-09T22:12:05.208Z,100.00
2022-11-09T22:14:52.341Z,100.00
2022-11-09T22:17:20.271Z,100.00
2022-11-09T22:20:14.843Z,100.00
2022-11-09T22:22:43.191Z,100.00
2022-11-09T22:25:11.057Z,100.00
2022-11-09T22:27:38.855Z,100.00
2022-11-09T22:30:09.376Z,100.00
2022-11-09T22:32:37.162Z,100.00
2022-11-09T22:35:05.368Z,100.00
2022-11-09T22:37:33.110Z,100.00
2022-11-09T22:40:00.829Z,100.00
2022-11-09T22:42:28.564Z,100.00
2022-11-09T22:44:56.381Z,100.00
2022-11-09T22:47:25.706Z,100.00
2022-11-09T22:49:53.528Z,100.00
2022-11-09T22:52:21.251Z,100.00
2022-11-09T22:54:49.038Z,100.00
2022-11-09T22:57:16.949Z,100.00
2022-11-09T22:59:44.713Z,100.00
2022-11-09T23:02:13.690Z,100.00
2022-11-09T23:04:42.797Z,100.00
2022-11-09T23:07:10.571Z,100.00
2022-11-09T23:09:38.352Z,100.00
2022-11-09T23:12:06.475Z,100.00
2022-11-09T23:14:51.817Z,100.00
2022-11-09T23:17:33.485Z,100.00
2022-11-09T23:20:02.917Z,100.00
2022-11-09T23:22:30.873Z,100.00
2022-11-09T23:25:16.562Z,100.00
2022-11-09T23:27:44.329Z,100.00
2022-11-09T23:30:14.768Z,100.00
2022-11-09T23:32:46.840Z,100.00
2022-11-09T23:35:16.464Z,100.00
2022-11-09T23:37:44.290Z,100.00
2022-11-09T23:40:13.195Z,100.00
2022-11-09T23:42:43.399Z,100.00
2022-11-09T23:45:11.335Z,100.00
2022-11-09T23:47:39.035Z,100.00
2022-11-09T23:50:07.673Z,100.00
2022-11-09T23:52:36.749Z,100.00
2022-11-09T23:55:04.854Z,100.00
2022-11-09T23:57:32.523Z,100.00
